Time;durP1;ratioP1;P1;durP2;ratioP2;P2;SDS_P1;SDS_P2;PMS_P1;PMS_P2;Temp;Humidity;BMP_temperature;BMP_pressure;BME280_temperature;BME280_humidity;BME280_pressure;Samples;Min_cycle;Max_cycle;Signal;HPM_P1;HPM_P2
2022/06/04 00:00:36;;;;;;;6.63;5.22;;;;;;;15.89;100.00;95862.25;5031277;28;24436;-72
2022/06/04 00:03:04;;;;;;;15.13;6.35;;;;;;;15.88;100.00;95857.16;5031572;28;24443;-72
2022/06/04 00:05:32;;;;;;;9.68;7.50;;;;;;;15.57;100.00;95861.41;5030870;28;24432;-73
2022/06/04 00:08:01;;;;;;;9.20;8.30;;;;;;;15.43;100.00;95865.16;5031279;28;24435;-72
2022/06/04 00:15:59;;;;;;;26.80;8.77;;;;;;;15.53;100.00;95867.81;5030199;28;24435;-73
2022/06/04 00:18:27;;;;;;;12.90;10.48;;;;;;;15.60;100.00;95863.75;5031531;28;24428;-72
2022/06/04 00:20:55;;;;;;;10.68;6.70;;;;;;;15.69;100.00;95861.28;5031004;28;24432;-72
2022/06/04 00:23:22;;;;;;;7.50;6.80;;;;;;;15.54;100.00;95872.94;5030721;28;24490;-72
2022/06/04 00:25:51;;;;;;;12.77;7.57;;;;;;;15.46;100.00;95877.91;5020349;28;24439;-72
2022/06/04 00:28:19;;;;;;;13.60;7.82;;;;;;;15.56;100.00;95875.41;5031119;28;24428;-72
2022/06/04 00:30:46;;;;;;;12.10;7.10;;;;;;;15.53;100.00;95866.03;5030970;28;24447;-73
2022/06/04 00:33:13;;;;;;;15.30;8.83;;;;;;;15.48;100.00;95861.19;5014172;28;24478;-72
2022/06/04 00:35:41;;;;;;;17.88;8.02;;;;;;;15.43;100.00;95865.16;5030758;28;24506;-72
2022/06/04 00:38:08;;;;;;;13.13;6.82;;;;;;;15.40;100.00;95861.00;5030931;28;25083;-73
2022/06/04 00:40:44;;;;;;;15.82;9.05;;;;;;;15.29;100.00;95858.41;5030988;28;24527;-73
2022/06/04 00:43:11;;;;;;;78.57;50.25;;;;;;;15.17;100.00;95847.19;5014507;28;24451;-72
2022/06/04 00:46:17;;;;;;;18.77;10.80;;;;;;;15.27;100.00;95860.31;5030471;28;24507;-73
2022/06/04 00:48:43;;;;;;;19.60;8.50;;;;;;;15.25;100.00;95857.84;5012250;28;24424;-72
2022/06/04 00:51:11;;;;;;;15.93;7.68;;;;;;;15.31;100.00;95856.50;5030784;28;24447;-73
2022/06/04 00:53:39;;;;;;;18.35;8.10;;;;;;;15.16;100.00;95852.50;5030536;28;24997;-73
2022/06/04 00:56:15;;;;;;;14.32;7.80;;;;;;;15.15;100.00;95858.69;5030273;28;24451;-72
2022/06/04 00:58:55;;;;;;;8.75;6.82;;;;;;;15.15;100.00;95858.69;5030846;28;24968;-72
2022/06/04 01:01:25;;;;;;;9.85;5.95;;;;;;;15.20;100.00;95852.16;5011278;28;24420;-72
2022/06/04 01:04:04;;;;;;;27.35;6.38;;;;;;;15.10;100.00;95853.00;5010932;28;24838;-72
2022/06/04 01:06:45;;;;;;;10.30;7.55;;;;;;;15.02;100.00;95856.22;5024876;28;24497;-72
2022/06/04 01:09:32;;;;;;;18.02;7.60;;;;;;;15.03;100.00;95855.28;5030520;28;24840;-72
2022/06/04 01:12:15;;;;;;;15.88;7.13;;;;;;;15.06;100.00;95844.59;5030549;28;24419;-73
2022/06/04 01:14:54;;;;;;;17.00;8.18;;;;;;;15.09;100.00;95843.50;5030279;28;24443;-72
2022/06/04 01:17:27;;;;;;;16.10;8.63;;;;;;;15.13;100.00;95855.34;5029350;28;24510;-73
2022/06/04 01:20:08;;;;;;;19.75;8.10;;;;;;;15.02;100.00;95861.44;5030577;28;24833;-72
2022/06/04 01:22:55;;;;;;;9.98;8.73;;;;;;;14.96;100.00;95869.75;5030401;28;24447;-72
2022/06/04 01:25:33;;;;;;;11.33;9.50;;;;;;;14.96;100.00;95872.34;5010589;28;24433;-72
2022/06/04 01:28:05;;;;;;;25.52;8.20;;;;;;;15.01;100.00;95875.41;5023471;28;24439;-71
2022/06/04 01:30:36;;;;;;;22.03;7.33;;;;;;;15.04;100.00;95880.41;5034563;28;24443;-72
2022/06/04 01:33:09;;;;;;;14.20;6.40;;;;;;;15.03;100.00;95870.94;5033966;28;25018;-72
2022/06/04 01:35:44;;;;;;;17.13;7.05;;;;;;;15.08;100.00;95868.78;5034178;28;24428;-72
2022/06/04 01:38:15;;;;;;;27.20;6.55;;;;;;;15.01;100.00;95864.97;5034595;28;24561;-72
2022/06/04 01:41:07;;;;;;;20.38;6.72;;;;;;;15.02;100.00;95871.88;5034377;28;24435;-73
2022/06/04 01:43:41;;;;;;;24.10;6.97;;;;;;;14.92;100.00;95871.75;5023088;28;24493;-73
2022/06/04 01:46:14;;;;;;;33.00;6.60;;;;;;;14.88;100.00;95872.13;5033695;28;24431;-72
2022/06/04 01:48:44;;;;;;;18.40;6.30;;;;;;;14.89;100.00;95872.00;5034422;28;24793;-72
2022/06/04 01:51:13;;;;;;;20.10;5.70;;;;;;;14.90;100.00;95878.03;5034127;28;24598;-72
2022/06/04 01:53:42;;;;;;;15.02;5.38;;;;;;;14.84;100.00;95878.53;5034058;28;24451;-72
2022/06/04 01:56:12;;;;;;;7.65;5.20;;;;;;;14.86;100.00;95877.44;5033646;28;24646;-72
2022/06/04 01:58:45;;;;;;;14.45;5.13;;;;;;;14.88;100.00;95879.97;5033783;28;24443;-72
2022/06/04 02:01:15;;;;;;;7.05;5.07;;;;;;;14.81;100.00;95884.81;5034199;28;24420;-73
2022/06/04 02:03:46;;;;;;;19.15;5.93;;;;;;;14.68;100.00;95884.94;5034086;28;24483;-72
2022/06/04 02:06:16;;;;;;;5.53;4.95;;;;;;;14.71;100.00;95879.47;5033709;28;24431;-72
2022/06/04 02:08:47;;;;;;;7.05;5.45;;;;;;;14.75;100.00;95873.06;5033947;28;24447;-72
2022/06/04 02:11:17;;;;;;;5.55;5.07;;;;;;;14.67;100.00;95870.22;5033409;28;24993;-73
2022/06/04 02:13:48;;;;;;;7.18;5.72;;;;;;;14.64;100.00;95873.06;5033935;28;24435;-72
2022/06/04 02:16:22;;;;;;;6.30;5.80;;;;;;;14.62;100.00;95867.16;5033337;28;24447;-75
2022/06/04 02:18:49;;;;;;;11.90;6.22;;;;;;;14.65;100.00;95869.53;5033658;28;24483;-73
2022/06/04 02:21:18;;;;;;;6.47;5.88;;;;;;;14.69;100.00;95863.13;5033214;28;24486;-72
2022/06/04 02:23:45;;;;;;;8.27;7.07;;;;;;;14.65;100.00;95869.53;5033118;28;24614;-72
2022/06/04 02:26:12;;;;;;;6.63;6.10;;;;;;;14.68;100.00;95861.47;5033280;28;24432;-72
2022/06/04 02:28:39;;;;;;;9.90;6.70;;;;;;;14.71;100.00;95861.22;5033499;28;24493;-72
2022/06/04 02:31:15;;;;;;;7.50;6.80;;;;;;;14.77;100.00;95849.50;5033426;28;24428;-72
2022/06/04 02:33:52;;;;;;;15.73;7.00;;;;;;;14.67;100.00;95849.38;5017824;28;24802;-72
2022/06/04 02:36:28;;;;;;;13.40;6.60;;;;;;;14.71;100.00;95848.19;5032909;28;24981;-72
2022/06/04 02:39:06;;;;;;;10.23;7.50;;;;;;;14.74;100.00;95842.75;5031755;28;24439;-72
2022/06/04 02:41:35;;;;;;;6.90;6.30;;;;;;;14.77;100.00;95852.09;5033227;28;24937;-72
2022/06/04 02:44:08;;;;;;;8.10;6.17;;;;;;;14.81;100.00;95837.06;5033376;28;24536;-72
2022/06/04 02:46:41;;;;;;;6.68;6.07;;;;;;;14.82;100.00;95833.50;5032634;28;24435;-72
2022/06/04 02:49:11;;;;;;;10.75;7.25;;;;;;;14.93;100.00;95828.25;5033086;28;24538;-74
2022/06/04 02:51:41;;;;;;;6.68;6.18;;;;;;;14.90;100.00;95828.50;5032820;28;24432;-73
2022/06/04 02:54:13;;;;;;;8.10;6.13;;;;;;;14.89;100.00;95830.28;5032715;28;24500;-72
2022/06/04 02:56:41;;;;;;;10.35;6.15;;;;;;;14.90;100.00;95829.31;5033050;28;24435;-73
2022/06/04 02:59:10;;;;;;;7.77;6.50;;;;;;;14.82;100.00;95836.09;5032921;28;24500;-72
2022/06/04 03:01:42;;;;;;;7.33;6.30;;;;;;;14.83;100.00;95842.97;5017580;28;24527;-72
2022/06/04 03:04:10;;;;;;;7.45;6.63;;;;;;;14.82;100.00;95841.31;5032573;28;24431;-72
2022/06/04 03:06:36;;;;;;;9.65;6.88;;;;;;;14.80;100.00;95836.22;5032706;28;24432;-72
2022/06/04 03:09:06;;;;;;;14.55;7.55;;;;;;;14.77;100.00;95828.66;5032710;28;24440;-72
2022/06/04 03:11:36;;;;;;;7.43;6.82;;;;;;;14.80;100.00;95825.81;5031975;28;24510;-72
2022/06/04 03:14:03;;;;;;;8.40;6.78;;;;;;;14.85;100.00;95830.66;5032208;28;24447;-72
2022/06/04 03:16:35;;;;;;;7.40;6.70;;;;;;;14.85;100.00;95831.47;5030476;28;25004;-72
2022/06/04 03:19:03;;;;;;;7.87;7.10;;;;;;;14.86;100.00;95827.91;5011109;28;24464;-72
2022/06/04 03:21:30;;;;;;;7.78;6.97;;;;;;;14.84;100.00;95829.81;5030248;28;24443;-72
2022/06/04 03:23:57;;;;;;;8.45;7.47;;;;;;;14.79;100.00;95833.72;5030580;28;24436;-73
2022/06/04 03:26:23;;;;;;;8.25;7.53;;;;;;;14.68;100.00;95842.38;5031722;28;24427;-72
2022/06/04 03:28:49;;;;;;;8.10;7.00;;;;;;;14.69;100.00;95850.09;5020709;28;24432;-72
2022/06/04 03:31:16;;;;;;;8.50;7.70;;;;;;;14.70;100.00;95856.13;5029440;28;24511;-72
2022/06/04 03:33:42;;;;;;;11.82;7.32;;;;;;;14.68;100.00;95863.22;5031461;28;24448;-72
2022/06/04 03:36:10;;;;;;;17.70;7.25;;;;;;;14.65;100.00;95858.28;5031763;28;24973;-72
2022/06/04 03:38:37;;;;;;;15.87;7.13;;;;;;;14.65;100.00;95859.13;5032014;28;24440;-72
2022/06/04 03:41:04;;;;;;;6.57;6.00;;;;;;;14.70;100.00;95856.13;5032182;28;24443;-72
2022/06/04 03:43:30;;;;;;;7.28;5.93;;;;;;;14.71;100.00;95863.81;5032130;28;24435;-72
2022/06/04 03:45:57;;;;;;;7.07;6.38;;;;;;;14.67;100.00;95859.81;5031844;28;24437;-72
2022/06/04 03:48:23;;;;;;;7.07;6.38;;;;;;;14.62;100.00;95861.13;5031991;28;24435;-72
2022/06/04 03:50:50;;;;;;;7.70;6.60;;;;;;;14.57;100.00;95861.47;5031077;28;24420;-72
2022/06/04 03:53:17;;;;;;;7.25;5.70;;;;;;;14.59;100.00;95859.56;5031591;28;24490;-72
2022/06/04 03:55:44;;;;;;;29.67;5.85;;;;;;;14.42;100.00;95855.63;5031424;28;24432;-73
2022/06/04 03:58:10;;;;;;;11.93;5.63;;;;;;;14.32;100.00;95853.84;5031595;28;24452;-72
2022/06/04 04:00:39;;;;;;;8.80;5.57;;;;;;;14.28;100.00;95848.88;5031604;28;24813;-72
2022/06/04 04:03:08;;;;;;;5.70;4.80;;;;;;;14.38;100.00;95848.97;5031588;28;24502;-73
2022/06/04 04:05:37;;;;;;;5.97;5.38;;;;;;;14.45;100.00;95849.34;5031184;28;24452;-72
2022/06/04 04:08:06;;;;;;;6.72;6.13;;;;;;;14.39;100.00;95850.66;5016704;28;24436;-72
2022/06/04 04:10:35;;;;;;;6.57;5.97;;;;;;;14.40;100.00;95859.31;5031510;28;24494;-72
2022/06/04 04:13:01;;;;;;;8.40;6.47;;;;;;;14.36;100.00;95861.31;5031479;28;24439;-73
2022/06/04 04:15:28;;;;;;;9.27;6.85;;;;;;;14.36;100.00;95868.31;5031003;28;24440;-75
2022/06/04 04:17:55;;;;;;;11.40;6.50;;;;;;;14.36;100.00;95863.09;5031635;28;24452;-73
2022/06/04 04:20:25;;;;;;;7.13;6.43;;;;;;;14.35;100.00;95857.06;5031168;28;24431;-71
2022/06/04 04:22:52;;;;;;;16.55;6.97;;;;;;;14.13;100.00;95852.66;5030926;28;24493;-73
2022/06/04 04:25:21;;;;;;;31.60;7.15;;;;;;;13.97;100.00;95857.34;5031101;28;24785;-75
2022/06/04 04:27:51;;;;;;;22.42;7.50;;;;;;;13.89;100.00;95850.09;5031300;28;24491;-72
2022/06/04 04:30:19;;;;;;;6.88;6.18;;;;;;;14.12;100.00;95855.34;5030707;28;25007;-73
2022/06/04 04:32:46;;;;;;;6.35;5.80;;;;;;;14.20;100.00;95859.06;5030496;28;24443;-73
2022/06/04 04:35:16;;;;;;;7.97;6.50;;;;;;;14.31;100.00;95863.44;5030898;28;24825;-72
2022/06/04 04:37:42;;;;;;;6.37;5.77;;;;;;;14.46;100.00;95858.81;5031191;28;24501;-73
2022/06/04 04:40:10;;;;;;;6.20;5.63;;;;;;;14.60;100.00;95855.19;5031158;28;24480;-73
2022/06/04 04:42:37;;;;;;;7.55;5.95;;;;;;;14.76;100.00;95855.66;5030537;28;24452;-73
2022/06/04 04:45:07;;;;;;;7.18;6.53;;;;;;;14.89;100.00;95868.56;5030384;28;24459;-73
2022/06/04 04:47:34;;;;;;;6.82;6.22;;;;;;;14.89;100.00;95879.00;5030746;28;24866;-73
2022/06/04 04:50:00;;;;;;;6.50;5.75;;;;;;;14.99;100.00;95874.72;5030824;28;24446;-73
2022/06/04 04:52:27;;;;;;;5.70;5.05;;;;;;;14.91;100.00;95882.31;5030703;28;24443;-73
2022/06/04 04:54:54;;;;;;;5.50;5.10;;;;;;;14.91;100.00;95897.97;5030152;28;24451;-73
2022/06/04 04:57:20;;;;;;;5.68;5.18;;;;;;;15.02;100.00;95897.97;5030186;28;24552;-72
2022/06/04 04:59:46;;;;;;;6.30;5.70;;;;;;;15.06;100.00;95904.59;5030378;28;24506;-73
2022/06/04 05:02:14;;;;;;;6.18;5.40;;;;;;;15.10;100.00;95905.19;5030247;28;24836;-73
2022/06/04 05:04:41;;;;;;;5.85;4.93;;;;;;;15.08;100.00;95905.28;5030033;28;25175;-73
2022/06/04 05:07:09;;;;;;;6.10;5.53;;;;;;;15.08;100.00;95909.69;5030339;28;25048;-73
2022/06/04 05:09:37;;;;;;;6.05;5.45;;;;;;;15.07;100.00;95911.47;5030467;28;24817;-73
2022/06/04 05:12:06;;;;;;;5.60;5.20;;;;;;;15.09;100.00;95904.34;5029595;28;21316;-73
2022/06/04 05:14:32;;;;;;;6.03;5.43;;;;;;;15.14;100.00;95915.25;5030053;28;24432;-73
2022/06/04 05:16:59;;;;;;;6.68;5.97;;;;;;;15.24;100.00;95915.38;5030345;28;24455;-73
2022/06/04 05:19:27;;;;;;;8.93;5.85;;;;;;;15.32;100.00;95912.97;5030531;28;24849;-73
2022/06/04 05:21:53;;;;;;;6.60;6.00;;;;;;;15.80;100.00;95902.19;5030270;28;24439;-73
2022/06/04 05:24:23;;;;;;;6.88;6.00;;;;;;;15.91;100.00;95916.97;5055431;22;24989;-74
2022/06/04 05:26:50;;;;;;;6.13;5.57;;;;;;;15.72;100.00;95925.44;5030270;28;24436;-74
2022/06/04 05:29:17;;;;;;;6.18;5.57;;;;;;;15.56;100.00;95938.88;5044370;28;24431;-74
2022/06/04 05:31:45;;;;;;;6.80;6.15;;;;;;;15.44;100.00;95951.13;5048640;28;24982;-74
2022/06/04 05:34:13;;;;;;;6.28;5.68;;;;;;;15.38;100.00;95950.78;5029699;28;25046;-74
2022/06/04 05:36:42;;;;;;;6.47;5.78;;;;;;;15.31;100.00;95963.47;5029858;28;24439;-74
2022/06/04 05:39:10;;;;;;;5.78;5.28;;;;;;;15.27;100.00;95976.91;5027136;28;24440;-74
2022/06/04 05:41:37;;;;;;;6.72;5.72;;;;;;;15.16;100.00;95983.78;5029869;28;25087;-75
2022/06/04 05:44:04;;;;;;;6.20;5.60;;;;;;;15.15;100.00;95997.78;5029289;28;25047;-74
2022/06/04 05:46:31;;;;;;;5.85;5.35;;;;;;;15.04;100.00;96004.78;5029081;28;24435;-74
2022/06/04 05:48:59;;;;;;;7.30;6.55;;;;;;;14.85;100.00;96021.81;5029068;28;24447;-74
2022/06/04 05:51:28;;;;;;;13.00;7.25;;;;;;;14.68;100.00;96036.16;5028604;28;24467;-74
2022/06/04 05:53:56;;;;;;;7.93;6.25;;;;;;;14.82;100.00;96036.88;5029120;28;24447;-74
2022/06/04 05:56:25;;;;;;;11.73;6.33;;;;;;;14.88;100.00;96036.41;5029373;28;24439;-74
2022/06/04 05:58:55;;;;;;;8.90;6.20;;;;;;;15.22;100.00;96022.44;5028959;28;24452;-74
2022/06/04 06:01:23;;;;;;;10.18;6.45;;;;;;;15.10;100.00;96012.97;5029995;28;24438;-74
2022/06/04 06:03:50;;;;;;;7.97;7.10;;;;;;;15.42;100.00;96013.06;5029716;28;24501;-74
2022/06/04 06:06:19;;;;;;;11.75;6.63;;;;;;;15.40;100.00;96011.53;5029125;28;24436;-73
2022/06/04 06:08:46;;;;;;;7.50;6.07;;;;;;;15.60;100.00;96010.78;5029488;28;24439;-73
2022/06/04 06:11:15;;;;;;;8.07;6.75;;;;;;;15.83;100.00;96013.38;5029787;28;24840;-74
2022/06/04 06:13:43;;;;;;;8.13;6.35;;;;;;;15.72;100.00;96003.78;5030733;28;24440;-74
2022/06/04 06:16:12;;;;;;;10.75;6.13;;;;;;;15.70;100.00;95997.88;5032919;28;24435;-74
2022/06/04 06:18:39;;;;;;;6.40;5.63;;;;;;;15.58;100.00;95989.22;5033335;28;24451;-74
2022/06/04 06:21:07;;;;;;;6.40;5.72;;;;;;;15.62;100.00;95966.28;5032460;28;25004;-74
2022/06/04 06:23:35;;;;;;;10.00;6.32;;;;;;;15.70;100.00;95950.88;5031787;28;24550;-74
2022/06/04 06:26:05;;;;;;;9.35;6.28;;;;;;;16.18;100.00;95953.88;5031762;28;24439;-74
2022/06/04 06:28:33;;;;;;;10.52;7.15;;;;;;;16.43;100.00;95941.41;5033124;28;24515;-74
2022/06/04 06:31:00;;;;;;;7.22;6.53;;;;;;;16.08;100.00;95944.31;5033196;28;24432;-73
2022/06/04 06:33:26;;;;;;;8.73;6.45;;;;;;;15.81;100.00;95945.63;5032395;28;24447;-73
2022/06/04 06:35:57;;;;;;;10.98;6.43;;;;;;;15.75;100.00;95940.06;5025597;28;24467;-73
2022/06/04 06:38:23;;;;;;;8.57;6.55;;;;;;;15.68;100.00;95924.91;5032825;28;24450;-73
2022/06/04 06:40:51;;;;;;;9.45;6.25;;;;;;;15.71;100.00;95911.56;5028258;28;24849;-73
2022/06/04 06:43:18;;;;;;;10.30;6.63;;;;;;;15.80;100.00;95923.06;5029199;28;24435;-73
2022/06/04 06:45:46;;;;;;;7.25;6.18;;;;;;;15.76;100.00;95946.94;5032305;28;24977;-73
2022/06/04 06:48:13;;;;;;;8.13;5.78;;;;;;;15.81;100.00;95948.22;5032498;28;24432;-73
2022/06/04 06:50:40;;;;;;;9.20;6.88;;;;;;;15.62;100.00;95956.69;5037647;28;24443;-77
2022/06/04 06:53:06;;;;;;;8.10;7.30;;;;;;;15.58;100.00;95957.06;5033899;28;24511;-77
2022/06/04 06:55:33;;;;;;;15.25;8.35;;;;;;;15.50;100.00;95955.06;5033434;28;24431;-77
2022/06/04 06:57:59;;;;;;;9.65;6.85;;;;;;;15.54;100.00;95951.25;5034005;28;24454;-78
2022/06/04 07:00:26;;;;;;;9.68;7.03;;;;;;;15.67;100.00;95957.16;5034041;28;24432;-78
2022/06/04 07:02:54;;;;;;;10.97;7.63;;;;;;;16.00;100.00;95965.84;5033677;28;24416;-78
2022/06/04 07:05:20;;;;;;;9.07;7.18;;;;;;;16.31;100.00;95977.22;5032085;28;25092;-77
2022/06/04 07:07:47;;;;;;;8.18;6.90;;;;;;;16.39;100.00;95980.06;5032689;28;25007;-78
2022/06/04 07:10:14;;;;;;;8.68;7.25;;;;;;;16.22;100.00;95975.38;5032057;28;24432;-77
2022/06/04 07:12:42;;;;;;;6.80;6.05;;;;;;;16.39;100.00;95971.38;5032466;28;24489;-78
2022/06/04 07:15:10;;;;;;;7.20;6.35;;;;;;;16.51;100.00;95967.75;5032091;28;24439;-78
2022/06/04 07:17:36;;;;;;;13.23;7.68;;;;;;;16.74;100.00;95957.19;5031754;28;24841;-77
2022/06/04 07:20:05;;;;;;;8.05;6.75;;;;;;;16.79;100.00;95958.44;5032217;28;25241;-78
2022/06/04 07:22:32;;;;;;;9.20;6.90;;;;;;;16.81;100.00;95971.41;5031955;28;24790;-77
2022/06/04 07:24:59;;;;;;;9.40;7.18;;;;;;;17.17;100.00;95962.19;5031859;28;25052;-78
2022/06/04 07:27:26;;;;;;;8.10;6.47;;;;;;;17.13;100.00;95955.53;5032045;28;24492;-77
2022/06/04 07:29:52;;;;;;;9.35;7.45;;;;;;;17.46;100.00;95954.41;5026346;28;24440;-78
2022/06/04 07:32:19;;;;;;;8.88;7.55;;;;;;;17.58;100.00;95944.69;5032032;28;24447;-77
2022/06/04 07:34:45;;;;;;;9.00;7.10;;;;;;;17.78;100.00;95941.13;5031125;28;24502;-78
2022/06/04 07:37:13;;;;;;;8.70;6.88;;;;;;;17.74;100.00;95947.59;5031904;28;24444;-78
2022/06/04 07:39:39;;;;;;;11.77;6.80;;;;;;;17.71;100.00;95953.09;5031733;28;24462;-78
2022/06/04 07:42:06;;;;;;;7.72;6.32;;;;;;;17.87;100.00;95960.44;5031544;28;24443;-78
2022/06/04 07:44:32;;;;;;;8.60;5.45;;;;;;;17.93;100.00;95954.66;5031164;28;25011;-78
2022/06/04 07:46:59;;;;;;;6.75;5.28;;;;;;;17.94;100.00;95945.84;5031810;28;24440;-77
2022/06/04 07:49:26;;;;;;;6.38;5.25;;;;;;;18.07;100.00;95949.03;5031604;28;24463;-78
2022/06/04 07:51:54;;;;;;;7.68;5.15;;;;;;;18.31;100.00;95945.97;5031375;28;25016;-78
2022/06/04 07:54:22;;;;;;;7.07;5.75;;;;;;;18.96;100.00;95940.91;5031787;28;24436;-76
2022/06/04 07:56:50;;;;;;;5.50;4.65;;;;;;;19.48;100.00;95953.50;5032015;28;24478;-78
2022/06/04 07:59:17;;;;;;;5.55;4.00;;;;;;;19.57;100.00;95957.88;5032097;28;24861;-78
2022/06/04 08:01:45;;;;;;;4.95;3.40;;;;;;;19.62;100.00;95954.84;5031828;28;24482;-78
2022/06/04 08:04:11;;;;;;;74.85;9.52;;;;;;;19.80;100.00;95960.94;5030562;28;24439;-78
2022/06/04 08:06:38;;;;;;;6.80;4.25;;;;;;;19.62;100.00;95960.94;5032387;28;24428;-78
2022/06/04 08:09:04;;;;;;;9.82;4.22;;;;;;;19.57;100.00;95971.84;5030975;28;24432;-77
2022/06/04 08:11:33;;;;;;;6.22;3.42;;;;;;;19.67;100.00;95977.06;5031223;28;24435;-76
2022/06/04 08:14:04;;;;;;;4.82;3.10;;;;;;;19.66;100.00;95970.19;5030991;28;24444;-78
2022/06/04 08:16:30;;;;;;;5.07;3.45;;;;;;;19.85;100.00;95963.97;5015781;28;24427;-76
2022/06/04 08:18:57;;;;;;;3.63;2.78;;;;;;;19.90;100.00;95968.78;5031497;28;24447;-77
2022/06/04 08:21:23;;;;;;;3.60;2.95;;;;;;;19.95;100.00;95956.00;5031004;28;24428;-78
2022/06/04 08:23:50;;;;;;;5.03;3.40;;;;;;;20.47;100.00;95975.38;5031042;28;24439;-78
2022/06/04 08:26:17;;;;;;;5.78;3.30;;;;;;;20.64;100.00;95967.63;5037439;28;24439;-77
2022/06/04 08:28:45;;;;;;;4.68;3.22;;;;;;;20.81;100.00;95979.94;5038737;28;25013;-77
2022/06/04 08:31:13;;;;;;;5.18;3.20;;;;;;;21.16;100.00;95978.97;5036255;28;24439;-77
2022/06/04 08:33:40;;;;;;;4.68;3.10;;;;;;;21.51;100.00;95990.41;5035037;28;24451;-77
2022/06/04 08:36:08;;;;;;;5.18;3.45;;;;;;;21.92;100.00;95987.91;5030811;28;24806;-74
2022/06/04 08:38:34;;;;;;;3.83;3.25;;;;;;;22.50;100.00;95986.19;5030603;28;24476;-74
2022/06/04 08:41:05;;;;;;;4.00;3.50;;;;;;;22.90;100.00;95980.88;5030257;28;24494;-74
2022/06/04 08:43:39;;;;;;;5.38;3.05;;;;;;;22.82;100.00;95978.25;5030733;28;24440;-74
2022/06/04 08:46:15;;;;;;;7.03;3.58;;;;;;;22.79;100.00;95986.50;5030419;28;24436;-73
2022/06/04 08:48:44;;;;;;;3.57;3.07;;;;;;;22.70;100.00;95992.78;5022938;28;25016;-73
2022/06/04 08:51:19;;;;;;;4.10;3.08;;;;;;;22.30;100.00;95997.06;5030149;28;24435;-74
2022/06/04 08:53:49;;;;;;;10.38;3.65;;;;;;;21.90;100.00;95998.59;5032494;28;24440;-74
2022/06/04 08:59:19;;;;;;;6.30;3.25;;;;;;;21.83;100.00;96005.47;5029568;28;24455;-73
2022/06/04 09:01:53;;;;;;;4.17;3.37;;;;;;;21.42;100.00;96005.31;5030437;28;24439;-73
2022/06/04 09:04:35;;;;;;;6.45;3.85;;;;;;;21.18;100.00;96011.28;5030588;28;24444;-73
2022/06/04 09:07:10;;;;;;;7.75;4.20;;;;;;;21.02;100.00;96004.09;5030978;28;24531;-73
2022/06/04 09:09:45;;;;;;;3.92;3.33;;;;;;;21.01;100.00;95998.97;5029944;28;24992;-73
2022/06/04 09:12:30;;;;;;;4.07;3.22;;;;;;;20.96;100.00;96009.16;5030326;28;24436;-73
2022/06/04 09:15:01;;;;;;;5.03;3.35;;;;;;;20.89;100.00;96006.31;5030265;28;24501;-73
2022/06/04 09:17:38;;;;;;;7.80;3.38;;;;;;;20.73;100.00;96007.03;5030326;28;24447;-73
2022/06/04 09:20:16;;;;;;;4.35;3.53;;;;;;;20.76;100.00;96012.00;5010776;28;24471;-73
2022/06/04 09:22:45;;;;;;;7.47;4.30;;;;;;;20.54;100.00;96012.44;5015044;28;24524;-73
2022/06/04 09:25:13;;;;;;;11.50;4.35;;;;;;;20.50;100.00;96019.81;5030203;28;24498;-73
2022/06/04 09:27:46;;;;;;;5.27;3.67;;;;;;;20.47;100.00;96020.13;5030311;28;24451;-73
2022/06/04 09:30:20;;;;;;;4.88;4.20;;;;;;;20.38;100.00;96023.63;5030256;28;24996;-73
2022/06/04 09:32:58;;;;;;;5.68;4.47;;;;;;;19.99;100.00;96031.00;5015660;28;24549;-73
2022/06/04 09:35:29;;;;;;;8.35;5.10;;;;;;;19.85;100.00;96026.22;5030637;28;24459;-73
2022/06/04 09:37:55;;;;;;;5.22;3.97;;;;;;;19.95;100.00;96026.97;5030587;28;24436;-73
2022/06/04 09:40:26;;;;;;;6.85;4.63;;;;;;;19.80;100.00;96029.28;5030184;28;24432;-73
2022/06/04 09:43:03;;;;;;;5.72;4.40;;;;;;;19.98;100.00;96034.56;5030239;28;24470;-73
2022/06/04 09:45:30;;;;;;;6.97;4.40;;;;;;;19.94;100.00;96036.66;5029686;28;24428;-73
2022/06/04 09:48:00;;;;;;;5.97;3.80;;;;;;;19.96;100.00;96041.78;5031594;28;24424;-73
2022/06/04 09:50:30;;;;;;;8.77;4.72;;;;;;;19.95;100.00;96054.13;5033967;28;24428;-73
2022/06/04 09:53:01;;;;;;;7.15;4.60;;;;;;;20.03;100.00;96059.47;5033577;28;25001;-73
2022/06/04 09:55:28;;;;;;;7.68;4.07;;;;;;;19.98;100.00;96066.94;5032911;28;24446;-73
2022/06/04 09:58:00;;;;;;;6.22;4.15;;;;;;;19.91;100.00;96075.56;5032690;28;24436;-73
2022/06/04 10:00:30;;;;;;;5.72;4.03;;;;;;;19.69;100.00;96068.88;5032834;28;24443;-74
2022/06/04 10:03:01;;;;;;;5.25;4.10;;;;;;;19.65;100.00;96065.72;5032961;28;24448;-75
2022/06/04 10:05:30;;;;;;;7.32;4.47;;;;;;;19.66;100.00;96072.66;5032814;28;24447;-73
2022/06/04 10:07:57;;;;;;;4.82;3.92;;;;;;;19.73;100.00;96075.53;5033569;28;24435;-73
2022/06/04 10:10:29;;;;;;;6.10;4.35;;;;;;;19.63;100.00;96072.13;5033457;28;24870;-73
2022/06/04 10:15:44;;;;;;;7.45;3.80;;;;;;;19.54;100.00;96077.22;5033456;28;24439;-73
2022/06/04 10:18:24;;;;;;;6.85;4.20;;;;;;;19.40;100.00;96072.44;5033369;28;24490;-73
2022/06/04 10:20:58;;;;;;;6.30;3.47;;;;;;;19.47;100.00;96062.19;5033190;28;24443;-73
2022/06/04 10:23:26;;;;;;;10.47;3.90;;;;;;;19.52;100.00;96062.56;5033232;28;24443;-73
2022/06/04 10:26:12;;;;;;;6.53;4.15;;;;;;;19.59;100.00;96068.91;5032962;28;25042;-73
2022/06/04 10:28:53;;;;;;;5.80;4.00;;;;;;;19.66;100.00;96075.28;5033359;28;24802;-73
2022/06/04 10:31:33;;;;;;;4.88;3.88;;;;;;;19.74;100.00;96082.44;5033086;28;24443;-73
2022/06/04 10:34:12;;;;;;;4.97;3.97;;;;;;;19.66;100.00;96091.03;5032809;28;24462;-73
2022/06/04 10:36:50;;;;;;;8.98;5.05;;;;;;;19.53;100.00;96080.00;5033128;28;25020;-73
2022/06/04 10:39:25;;;;;;;6.10;4.78;;;;;;;19.47;100.00;96084.03;5033019;28;24451;-73
2022/06/04 10:41:57;;;;;;;7.65;4.05;;;;;;;19.56;100.00;96090.22;5032758;28;24443;-73
2022/06/04 10:44:34;;;;;;;11.70;4.43;;;;;;;19.59;100.00;96097.81;5033021;28;24447;-73
2022/06/04 10:47:08;;;;;;;7.50;5.03;;;;;;;19.46;100.00;96090.22;5032980;28;24988;-73
2022/06/04 10:49:55;;;;;;;5.70;4.35;;;;;;;19.68;100.00;96088.25;5032736;28;25046;-74
2022/06/04 10:52:26;;;;;;;6.28;4.70;;;;;;;19.86;100.00;96101.47;5032736;28;24439;-73
2022/06/04 10:55:01;;;;;;;8.25;5.35;;;;;;;19.72;100.00;96097.50;5032694;28;24447;-73
2022/06/04 10:57:32;;;;;;;7.18;5.55;;;;;;;19.89;100.00;96103.81;5032644;28;24443;-73
2022/06/04 11:00:04;;;;;;;5.78;5.00;;;;;;;20.01;100.00;96092.13;5032006;28;24458;-74
2022/06/04 11:02:47;;;;;;;7.55;5.03;;;;;;;20.19;100.00;96092.97;5032550;28;24893;-73
2022/06/04 11:05:20;;;;;;;7.47;5.10;;;;;;;20.49;100.00;96091.00;5032681;28;24424;-74
2022/06/04 11:07:53;;;;;;;6.90;5.47;;;;;;;20.74;100.00;96079.75;5032594;28;24431;-73
2022/06/04 11:10:23;;;;;;;5.68;4.53;;;;;;;20.60;100.00;96085.53;5032440;28;24436;-73
2022/06/04 11:12:56;;;;;;;8.25;5.10;;;;;;;20.50;100.00;96085.59;5032575;28;24438;-73
2022/06/04 11:15:26;;;;;;;6.57;5.10;;;;;;;20.61;100.00;96092.44;5032222;28;24514;-74
2022/06/04 11:18:02;;;;;;;7.75;5.65;;;;;;;20.33;100.00;96089.03;5032442;28;24999;-74
2022/06/04 11:20:34;;;;;;;7.03;5.35;;;;;;;20.35;100.00;96099.38;5032491;28;24452;-74
2022/06/04 11:23:15;;;;;;;5.10;4.57;;;;;;;20.44;100.00;96098.50;5056618;22;24440;-74
2022/06/04 11:25:47;;;;;;;6.15;4.97;;;;;;;20.31;100.00;96094.41;4996528;28;24433;-76
2022/06/04 11:28:23;;;;;;;7.57;5.10;;;;;;;20.77;100.00;96089.97;5005121;28;24884;-76
2022/06/04 11:30:57;;;;;;;7.38;6.35;;;;;;;21.14;100.00;96086.31;5005631;28;24520;-76
2022/06/04 11:33:37;;;;;;;8.10;6.47;;;;;;;21.31;100.00;96092.50;5006221;28;24822;-76
2022/06/04 11:36:16;;;;;;;8.63;6.78;;;;;;;21.42;100.00;96089.66;5012556;28;24494;-76
2022/06/04 11:39:03;;;;;;;8.18;6.05;;;;;;;21.38;100.00;96071.66;5001084;28;24436;-76
2022/06/04 11:41:35;;;;;;;5.73;5.13;;;;;;;21.21;100.00;96079.44;4997527;28;24444;-77
2022/06/04 11:44:33;;;;;;;7.63;5.82;;;;;;;21.07;100.00;96084.44;5003441;28;24445;-77
2022/06/04 11:47:15;;;;;;;8.57;5.53;;;;;;;20.96;100.00;96088.97;4998612;28;24528;-76
2022/06/04 11:49:49;;;;;;;6.85;5.22;;;;;;;20.98;100.00;96087.00;4999799;28;24433;-75